TNO5555 EDDE-EKVG
Flight info
| Callsign | TNO5555 |
|---|---|
| Flight time | 2h 21m |
| Altitude | 38000 |
| Route | LASTO1D LASTO M852 AMLUH L619 ELSOB/N0449F390 Y348 OMWEG/N0449F380 DCT ATTUS P992 BAVTA L983 AMRAM P60 VAXIT DCT SPA DCT SUM DCT PEMOS/M079F380 DCT MY |
| Aircraft | A20N/M-SDE2E3FGHIRWXY/LB1 |
Departure
| Time | 2026-05-03 22:12 |
|---|---|
| Airport | Erfurt-Weimar Airport (EDDE) |
Arrival
| Time | 2026-05-04 00:33 |
|---|---|
| Airport | Vágar Airport (EKVG) |
| Time | Latitude | Longitude | Altitude | Speed | Heading |
|---|---|---|---|---|---|
| 2026-05-03 22:06 | 50.97664 | 10.96341 | 1041 ft | 0 kts | 277° |
| 2026-05-03 22:07 | 50.97664 | 10.96342 | 1041 ft | 1 kts | 277° |
| 2026-05-03 22:07 | 50.97656 | 10.96364 | 1041 ft | 3 kts | 347° |
| 2026-05-03 22:07 | 50.97641 | 10.96361 | 1041 ft | 0 kts | 46° |
| 2026-05-03 22:08 | 50.97659 | 10.96392 | 1041 ft | 7 kts | 47° |
| 2026-05-03 22:08 | 50.97683 | 10.96440 | 1041 ft | 4 kts | 58° |
| 2026-05-03 22:08 | 50.97693 | 10.96468 | 1041 ft | 2 kts | 66° |
| 2026-05-03 22:09 | 50.97704 | 10.96560 | 1040 ft | 10 kts | 81° |
| 2026-05-03 22:09 | 50.97696 | 10.96695 | 1040 ft | 19 kts | 97° |
| 2026-05-03 22:09 | 50.97676 | 10.96912 | 1038 ft | 20 kts | 97° |
| 2026-05-03 22:10 | 50.97707 | 10.97336 | 1036 ft | 19 kts | 81° |
| 2026-05-03 22:10 | 50.97756 | 10.97510 | 1035 ft | 17 kts | 52° |
| 2026-05-03 22:10 | 50.97831 | 10.97532 | 1033 ft | 12 kts | 280° |
| 2026-05-03 22:10 | 50.97856 | 10.97210 | 1038 ft | 56 kts | 277° |
| 2026-05-03 22:11 | 50.97928 | 10.96286 | 1041 ft | 113 kts | 278° |
| 2026-05-03 22:11 | 50.98047 | 10.94754 | 1136 ft | 153 kts | 276° |
| 2026-05-03 22:11 | 50.98235 | 10.93102 | 1429 ft | 169 kts | 278° |
| 2026-05-03 22:11 | 50.98438 | 10.91099 | 1617 ft | 195 kts | 276° |
| 2026-05-03 22:12 | 50.98587 | 10.89632 | 1795 ft | 207 kts | 278° |
| 2026-05-03 22:12 | 50.98919 | 10.86484 | 2353 ft | 232 kts | 274° |
| 2026-05-03 22:12 | 50.99067 | 10.83884 | 2789 ft | 239 kts | 272° |
| 2026-05-03 22:12 | 50.99191 | 10.81237 | 3441 ft | 239 kts | 271° |
| 2026-05-03 22:13 | 50.99386 | 10.78620 | 4115 ft | 242 kts | 281° |
| 2026-05-03 22:13 | 51.00185 | 10.76208 | 4670 ft | 258 kts | 309° |
| 2026-05-03 22:13 | 51.01793 | 10.74765 | 5205 ft | 281 kts | 343° |
| 2026-05-03 22:13 | 51.03793 | 10.74916 | 5731 ft | 299 kts | 14° |
| 2026-05-03 22:14 | 51.05722 | 10.76261 | 6352 ft | 308 kts | 32° |
| 2026-05-03 22:14 | 51.07231 | 10.78610 | 6927 ft | 312 kts | 58° |
| 2026-05-03 22:14 | 51.08322 | 10.81611 | 7516 ft | 315 kts | 64° |
| 2026-05-03 22:14 | 51.09332 | 10.84723 | 8179 ft | 318 kts | 65° |
| 2026-05-03 22:15 | 51.10006 | 10.86803 | 8607 ft | 320 kts | 65° |
| 2026-05-03 22:15 | 51.10992 | 10.89981 | 9251 ft | 321 kts | 72° |
| 2026-05-03 22:15 | 51.11541 | 10.93406 | 9880 ft | 319 kts | 85° |
| 2026-05-03 22:15 | 51.12005 | 10.98145 | 10405 ft | 334 kts | 81° |
| 2026-05-03 22:16 | 51.12784 | 11.01686 | 10660 ft | 355 kts | 65° |
| 2026-05-03 22:16 | 51.14284 | 11.04921 | 10893 ft | 374 kts | 44° |
| 2026-05-03 22:16 | 51.15689 | 11.06655 | 11077 ft | 384 kts | 30° |
| 2026-05-03 22:16 | 51.19049 | 11.08441 | 11682 ft | 389 kts | 2° |
| 2026-05-03 22:17 | 51.21749 | 11.08331 | 12285 ft | 388 kts | 351° |
| 2026-05-03 22:17 | 51.23520 | 11.07957 | 12706 ft | 388 kts | 347° |
| 2026-05-03 22:17 | 51.27076 | 11.06839 | 13533 ft | 390 kts | 343° |
| 2026-05-03 22:17 | 51.28834 | 11.06200 | 13920 ft | 392 kts | 343° |
| 2026-05-03 22:18 | 51.31505 | 11.05200 | 14404 ft | 395 kts | 343° |
| 2026-05-03 22:18 | 51.34188 | 11.04213 | 14998 ft | 397 kts | 343° |
| 2026-05-03 22:18 | 51.36891 | 11.03255 | 15551 ft | 399 kts | 344° |
| 2026-05-03 22:18 | 51.39612 | 11.02321 | 16076 ft | 401 kts | 344° |
| 2026-05-03 22:19 | 51.42356 | 11.01404 | 16603 ft | 404 kts | 345° |
| 2026-05-03 22:19 | 51.45119 | 11.00494 | 17137 ft | 406 kts | 345° |
| 2026-05-03 22:19 | 51.47856 | 10.99598 | 17657 ft | 409 kts | 345° |
| 2026-05-03 22:19 | 51.50650 | 10.98682 | 18193 ft | 411 kts | 345° |
| 2026-05-03 22:20 | 51.53463 | 10.97757 | 18654 ft | 414 kts | 345° |
| 2026-05-03 22:20 | 51.56291 | 10.96824 | 19069 ft | 416 kts | 345° |
| 2026-05-03 22:20 | 51.59143 | 10.95880 | 19493 ft | 419 kts | 345° |
| 2026-05-03 22:20 | 51.62010 | 10.94929 | 19900 ft | 422 kts | 345° |
| 2026-05-03 22:21 | 51.65834 | 10.93657 | 20432 ft | 426 kts | 345° |
| 2026-05-03 22:21 | 51.67803 | 10.93002 | 20708 ft | 428 kts | 345° |
| 2026-05-03 22:21 | 51.70725 | 10.92029 | 21105 ft | 431 kts | 345° |
| 2026-05-03 22:21 | 51.73672 | 10.91046 | 21516 ft | 433 kts | 345° |
| 2026-05-03 22:22 | 51.76587 | 10.90069 | 21915 ft | 436 kts | 345° |
| 2026-05-03 22:22 | 51.79567 | 10.89071 | 22320 ft | 438 kts | 344° |
| 2026-05-03 22:22 | 51.82558 | 10.88070 | 22726 ft | 441 kts | 344° |
| 2026-05-03 22:22 | 51.85573 | 10.87059 | 23097 ft | 444 kts | 344° |
| 2026-05-03 22:23 | 51.88604 | 10.86042 | 23466 ft | 447 kts | 344° |
| 2026-05-03 22:23 | 51.91660 | 10.85014 | 23775 ft | 449 kts | 344° |
| 2026-05-03 22:23 | 51.94729 | 10.83980 | 24082 ft | 452 kts | 344° |
| 2026-05-03 22:23 | 51.97811 | 10.82940 | 24379 ft | 454 kts | 344° |
| 2026-05-03 22:24 | 52.00913 | 10.81890 | 24704 ft | 457 kts | 344° |
| 2026-05-03 22:24 | 52.04004 | 10.80841 | 24864 ft | 463 kts | 344° |
| 2026-05-03 22:24 | 52.07170 | 10.79766 | 25135 ft | 466 kts | 344° |
| 2026-05-03 22:24 | 52.10341 | 10.78690 | 25461 ft | 467 kts | 344° |
| 2026-05-03 22:25 | 52.13528 | 10.77608 | 25767 ft | 468 kts | 344° |
| 2026-05-03 22:25 | 52.16722 | 10.76522 | 26059 ft | 470 kts | 344° |
| 2026-05-03 22:25 | 52.19934 | 10.75428 | 26352 ft | 472 kts | 344° |
| 2026-05-03 22:25 | 52.23154 | 10.74329 | 26637 ft | 474 kts | 344° |
| 2026-05-03 22:26 | 52.26339 | 10.73240 | 26907 ft | 476 kts | 344° |
| 2026-05-03 22:26 | 52.29592 | 10.72126 | 27201 ft | 477 kts | 344° |
| 2026-05-03 22:26 | 52.32849 | 10.71010 | 27496 ft | 478 kts | 344° |
| 2026-05-03 22:26 | 52.36105 | 10.69893 | 27834 ft | 478 kts | 344° |
| 2026-05-03 22:27 | 52.39358 | 10.68775 | 28203 ft | 477 kts | 344° |
| 2026-05-03 22:27 | 52.42609 | 10.67657 | 28552 ft | 477 kts | 344° |
| 2026-05-03 22:27 | 52.45849 | 10.66540 | 28882 ft | 476 kts | 344° |
| 2026-05-03 22:27 | 52.49048 | 10.65435 | 29212 ft | 476 kts | 344° |
| 2026-05-03 22:28 | 52.52275 | 10.64318 | 29527 ft | 475 kts | 344° |
| 2026-05-03 22:28 | 52.55513 | 10.63197 | 29863 ft | 474 kts | 344° |
| 2026-05-03 22:28 | 52.58737 | 10.62078 | 30145 ft | 474 kts | 344° |
| 2026-05-03 22:28 | 52.61967 | 10.60955 | 30383 ft | 474 kts | 344° |
| 2026-05-03 22:29 | 52.65189 | 10.59833 | 30609 ft | 473 kts | 344° |
| 2026-05-03 22:29 | 52.68409 | 10.58710 | 30825 ft | 473 kts | 344° |
| 2026-05-03 22:29 | 52.71637 | 10.57582 | 30984 ft | 476 kts | 343° |
| 2026-05-03 22:29 | 52.74884 | 10.56445 | 31098 ft | 478 kts | 343° |
| 2026-05-03 22:30 | 52.78134 | 10.55306 | 31320 ft | 477 kts | 343° |
| 2026-05-03 22:30 | 52.81339 | 10.54183 | 31580 ft | 476 kts | 343° |
| 2026-05-03 22:30 | 52.84575 | 10.53048 | 31801 ft | 475 kts | 343° |
| 2026-05-03 22:30 | 52.87808 | 10.51911 | 31985 ft | 475 kts | 343° |
| 2026-05-03 22:31 | 52.91047 | 10.50770 | 32182 ft | 475 kts | 343° |
| 2026-05-03 22:31 | 52.94281 | 10.49629 | 32367 ft | 475 kts | 343° |
| 2026-05-03 22:31 | 52.97515 | 10.48485 | 32555 ft | 475 kts | 343° |
| 2026-05-03 22:31 | 53.00739 | 10.47344 | 32729 ft | 474 kts | 343° |
| 2026-05-03 22:32 | 53.03928 | 10.46214 | 32912 ft | 474 kts | 343° |
| 2026-05-03 22:32 | 53.07151 | 10.45069 | 33076 ft | 474 kts | 343° |
| 2026-05-03 22:32 | 53.10377 | 10.43922 | 33232 ft | 474 kts | 343° |
| 2026-05-03 22:32 | 53.13604 | 10.42772 | 33384 ft | 474 kts | 343° |
| 2026-05-03 22:33 | 53.16823 | 10.41624 | 33537 ft | 474 kts | 343° |
| 2026-05-03 22:33 | 53.20049 | 10.40472 | 33688 ft | 474 kts | 343° |
| 2026-05-03 22:33 | 53.23270 | 10.39319 | 33831 ft | 473 kts | 343° |
| 2026-05-03 22:33 | 53.26489 | 10.38166 | 33964 ft | 473 kts | 343° |
| 2026-05-03 22:34 | 53.29708 | 10.37011 | 34108 ft | 473 kts | 343° |
| 2026-05-03 22:34 | 53.36128 | 10.34699 | 34177 ft | 477 kts | 343° |
| 2026-05-03 22:34 | 53.39367 | 10.33524 | 34287 ft | 476 kts | 341° |
| 2026-05-03 22:35 | 53.42516 | 10.31888 | 34369 ft | 471 kts | 332° |
| 2026-05-03 22:35 | 53.48291 | 10.26896 | 34500 ft | 466 kts | 324° |
| 2026-05-03 22:36 | 53.53862 | 10.21356 | 34686 ft | 465 kts | 323° |
| 2026-05-03 22:36 | 53.59393 | 10.15690 | 34857 ft | 466 kts | 323° |
| 2026-05-03 22:37 | 53.64904 | 10.10050 | 35003 ft | 467 kts | 323° |
| 2026-05-03 22:37 | 53.70469 | 10.04374 | 35142 ft | 468 kts | 323° |
| 2026-05-03 22:38 | 53.76048 | 9.98679 | 35291 ft | 469 kts | 323° |
| 2026-05-03 22:38 | 53.81629 | 9.92966 | 35427 ft | 469 kts | 323° |
| 2026-05-03 22:39 | 53.87179 | 9.87265 | 35561 ft | 470 kts | 323° |
| 2026-05-03 22:39 | 53.92777 | 9.81496 | 35681 ft | 471 kts | 323° |
| 2026-05-03 22:40 | 53.98380 | 9.75702 | 35800 ft | 472 kts | 323° |
| 2026-05-03 22:40 | 54.03987 | 9.69886 | 35915 ft | 473 kts | 323° |
| 2026-05-03 22:41 | 54.09562 | 9.64086 | 36032 ft | 473 kts | 323° |
| 2026-05-03 22:41 | 54.15174 | 9.58228 | 36205 ft | 473 kts | 323° |
| 2026-05-03 22:42 | 54.20779 | 9.52359 | 36327 ft | 473 kts | 323° |
| 2026-05-03 22:42 | 54.26389 | 9.46465 | 36452 ft | 473 kts | 323° |
| 2026-05-03 22:43 | 54.31993 | 9.40559 | 36599 ft | 472 kts | 323° |
| 2026-05-03 22:43 | 54.37542 | 9.34691 | 36714 ft | 472 kts | 323° |
| 2026-05-03 22:44 | 54.43126 | 9.28770 | 36842 ft | 471 kts | 323° |
| 2026-05-03 22:44 | 54.48698 | 9.22845 | 36949 ft | 471 kts | 323° |
| 2026-05-03 22:45 | 54.54259 | 9.16911 | 37053 ft | 470 kts | 323° |
| 2026-05-03 22:45 | 54.56999 | 9.13979 | 37180 ft | 469 kts | 323° |
| 2026-05-03 22:45 | 54.59757 | 9.11024 | 37304 ft | 467 kts | 323° |
| 2026-05-03 22:46 | 54.65273 | 9.05095 | 37341 ft | 467 kts | 323° |
| 2026-05-03 22:46 | 54.70784 | 8.99151 | 37422 ft | 467 kts | 323° |
| 2026-05-03 22:47 | 54.76291 | 8.93189 | 37494 ft | 467 kts | 323° |
| 2026-05-03 22:47 | 54.81751 | 8.87259 | 37557 ft | 466 kts | 323° |
| 2026-05-03 22:48 | 54.87240 | 8.81271 | 37615 ft | 465 kts | 321° |
| 2026-05-03 22:48 | 54.92057 | 8.74026 | 37623 ft | 456 kts | 309° |
| 2026-05-03 22:49 | 54.96308 | 8.65947 | 37681 ft | 455 kts | 307° |
| 2026-05-03 22:49 | 55.00467 | 8.57654 | 37700 ft | 455 kts | 306° |
| 2026-05-03 22:50 | 55.04618 | 8.49319 | 37738 ft | 455 kts | 306° |
| 2026-05-03 22:50 | 55.08773 | 8.40994 | 37776 ft | 455 kts | 306° |
| 2026-05-03 22:51 | 55.12904 | 8.32715 | 37806 ft | 455 kts | 306° |
| 2026-05-03 22:51 | 55.17054 | 8.24376 | 37865 ft | 455 kts | 306° |
| 2026-05-03 22:52 | 55.21205 | 8.16002 | 37874 ft | 455 kts | 306° |
| 2026-05-03 22:52 | 55.25349 | 8.07613 | 37863 ft | 456 kts | 306° |
| 2026-05-03 22:53 | 55.29467 | 7.99248 | 37878 ft | 456 kts | 306° |
| 2026-05-03 22:53 | 55.33601 | 7.90822 | 37887 ft | 455 kts | 306° |
| 2026-05-03 22:54 | 55.37723 | 7.82392 | 37887 ft | 455 kts | 306° |
| 2026-05-03 22:54 | 55.41839 | 7.73941 | 37880 ft | 455 kts | 306° |
| 2026-05-03 22:55 | 55.45924 | 7.65526 | 37884 ft | 455 kts | 306° |
| 2026-05-03 22:55 | 55.50029 | 7.57040 | 37893 ft | 455 kts | 306° |
| 2026-05-03 22:56 | 55.54129 | 7.48535 | 37894 ft | 455 kts | 306° |
| 2026-05-03 22:56 | 55.58224 | 7.40012 | 37892 ft | 455 kts | 306° |
| 2026-05-03 22:57 | 55.62281 | 7.31536 | 37894 ft | 454 kts | 306° |
| 2026-05-03 22:57 | 55.66358 | 7.22989 | 37893 ft | 454 kts | 306° |
| 2026-05-03 22:58 | 55.70425 | 7.14433 | 37896 ft | 454 kts | 306° |
| 2026-05-03 22:58 | 55.74486 | 7.05859 | 37896 ft | 454 kts | 306° |
| 2026-05-03 22:59 | 55.78516 | 6.97319 | 37906 ft | 454 kts | 306° |
| 2026-05-03 22:59 | 55.82567 | 6.88705 | 37910 ft | 454 kts | 305° |
| 2026-05-03 23:00 | 55.86611 | 6.80074 | 37910 ft | 454 kts | 305° |
| 2026-05-03 23:00 | 55.90647 | 6.71432 | 37914 ft | 454 kts | 305° |
| 2026-05-03 23:01 | 55.94549 | 6.62721 | 37912 ft | 451 kts | 301° |
| 2026-05-03 23:01 | 55.98106 | 6.53515 | 37914 ft | 450 kts | 300° |
| 2026-05-03 23:02 | 56.01580 | 6.44226 | 37914 ft | 450 kts | 299° |
| 2026-05-03 23:02 | 56.05036 | 6.34901 | 37917 ft | 450 kts | 299° |
| 2026-05-03 23:03 | 56.08470 | 6.25616 | 37936 ft | 450 kts | 300° |
| 2026-05-03 23:03 | 56.11925 | 6.16258 | 37917 ft | 451 kts | 299° |
| 2026-05-03 23:04 | 56.15378 | 6.06871 | 37931 ft | 451 kts | 299° |
| 2026-05-03 23:04 | 56.18823 | 5.97471 | 37922 ft | 451 kts | 299° |
| 2026-05-03 23:05 | 56.22239 | 5.88114 | 37925 ft | 451 kts | 299° |
| 2026-05-03 23:05 | 56.25668 | 5.78686 | 37925 ft | 451 kts | 299° |
| 2026-05-03 23:06 | 56.29091 | 5.69232 | 37937 ft | 451 kts | 299° |
| 2026-05-03 23:06 | 56.32509 | 5.59759 | 37935 ft | 451 kts | 299° |
| 2026-05-03 23:07 | 56.35897 | 5.50331 | 37931 ft | 451 kts | 299° |
| 2026-05-03 23:07 | 56.39298 | 5.40829 | 37930 ft | 451 kts | 299° |
| 2026-05-03 23:08 | 56.42701 | 5.31288 | 37929 ft | 451 kts | 299° |
| 2026-05-03 23:08 | 56.46089 | 5.21748 | 37935 ft | 451 kts | 299° |
| 2026-05-03 23:09 | 56.49471 | 5.12189 | 37933 ft | 451 kts | 299° |
| 2026-05-03 23:09 | 56.52830 | 5.02697 | 37939 ft | 451 kts | 302° |
| 2026-05-03 23:10 | 56.57094 | 4.94256 | 37939 ft | 456 kts | 311° |
| 2026-05-03 23:10 | 56.61630 | 4.86193 | 37947 ft | 457 kts | 311° |
| 2026-05-03 23:11 | 56.66161 | 4.78178 | 37947 ft | 458 kts | 311° |
| 2026-05-03 23:11 | 56.70722 | 4.70092 | 37944 ft | 458 kts | 311° |
| 2026-05-03 23:12 | 56.75278 | 4.61988 | 37953 ft | 458 kts | 312° |
| 2026-05-03 23:12 | 56.79826 | 4.53871 | 37941 ft | 457 kts | 311° |
| 2026-05-03 23:13 | 56.84331 | 4.45804 | 37953 ft | 456 kts | 311° |
| 2026-05-03 23:13 | 56.88857 | 4.37670 | 37948 ft | 456 kts | 311° |
| 2026-05-03 23:14 | 56.93373 | 4.29525 | 37951 ft | 456 kts | 311° |
| 2026-05-03 23:14 | 56.97890 | 4.21347 | 37957 ft | 456 kts | 311° |
| 2026-05-03 23:15 | 57.02372 | 4.13201 | 37948 ft | 456 kts | 311° |
| 2026-05-03 23:15 | 57.06875 | 4.04990 | 37964 ft | 456 kts | 311° |
| 2026-05-03 23:16 | 57.11361 | 3.96774 | 37960 ft | 455 kts | 311° |
| 2026-05-03 23:16 | 57.15837 | 3.88547 | 37960 ft | 455 kts | 311° |
| 2026-05-03 23:17 | 57.20282 | 3.80351 | 37963 ft | 455 kts | 311° |
| 2026-05-03 23:17 | 57.24749 | 3.72085 | 37958 ft | 455 kts | 311° |
| 2026-05-03 23:18 | 57.29211 | 3.63798 | 37966 ft | 455 kts | 311° |
| 2026-05-03 23:18 | 57.33661 | 3.55503 | 37999 ft | 455 kts | 311° |
| 2026-05-03 23:19 | 57.38079 | 3.47240 | 37966 ft | 453 kts | 311° |
| 2026-05-03 23:19 | 57.42502 | 3.38935 | 37969 ft | 452 kts | 311° |
| 2026-05-03 23:20 | 57.46915 | 3.30618 | 37974 ft | 452 kts | 311° |
| 2026-05-03 23:20 | 57.51324 | 3.22280 | 37971 ft | 452 kts | 311° |
| 2026-05-03 23:21 | 57.55699 | 3.13974 | 37971 ft | 452 kts | 311° |
| 2026-05-03 23:21 | 57.60092 | 3.05605 | 37974 ft | 452 kts | 311° |
| 2026-05-03 23:22 | 57.66678 | 2.92999 | 37967 ft | 451 kts | 311° |
| 2026-05-03 23:22 | 57.71043 | 2.84607 | 37959 ft | 450 kts | 311° |
| 2026-05-03 23:23 | 57.75369 | 2.76256 | 37959 ft | 450 kts | 311° |
| 2026-05-03 23:23 | 57.79714 | 2.67840 | 37963 ft | 450 kts | 311° |
| 2026-05-03 23:24 | 57.84064 | 2.59383 | 37970 ft | 450 kts | 310° |
| 2026-05-03 23:24 | 57.88405 | 2.50913 | 37964 ft | 450 kts | 310° |
| 2026-05-03 23:25 | 57.92708 | 2.42485 | 37977 ft | 450 kts | 311° |
| 2026-05-03 23:25 | 57.97030 | 2.33989 | 37971 ft | 449 kts | 310° |
| 2026-05-03 23:26 | 58.01339 | 2.25486 | 37973 ft | 448 kts | 310° |
| 2026-05-03 23:26 | 58.05642 | 2.16963 | 37974 ft | 448 kts | 310° |
| 2026-05-03 23:27 | 58.09904 | 2.08489 | 37972 ft | 449 kts | 310° |
| 2026-05-03 23:27 | 58.14204 | 1.99909 | 37966 ft | 449 kts | 310° |
| 2026-05-03 23:28 | 58.18488 | 1.91328 | 37969 ft | 449 kts | 310° |
| 2026-05-03 23:28 | 58.22772 | 1.82716 | 37970 ft | 447 kts | 310° |
| 2026-05-03 23:29 | 58.26996 | 1.74193 | 37958 ft | 445 kts | 310° |
| 2026-05-03 23:29 | 58.31230 | 1.65616 | 37961 ft | 445 kts | 310° |
| 2026-05-03 23:30 | 58.35455 | 1.57024 | 37964 ft | 445 kts | 310° |
| 2026-05-03 23:30 | 58.39677 | 1.48407 | 37964 ft | 445 kts | 310° |
| 2026-05-03 23:31 | 58.43870 | 1.39819 | 37964 ft | 445 kts | 310° |
| 2026-05-03 23:31 | 58.48082 | 1.31156 | 37979 ft | 445 kts | 310° |
| 2026-05-03 23:32 | 58.52285 | 1.22483 | 37966 ft | 444 kts | 310° |
| 2026-05-03 23:32 | 58.56466 | 1.13821 | 37965 ft | 442 kts | 310° |
| 2026-05-03 23:33 | 58.60602 | 1.05218 | 37960 ft | 442 kts | 309° |
| 2026-05-03 23:33 | 58.64759 | 0.96540 | 37966 ft | 442 kts | 309° |
| 2026-05-03 23:34 | 58.68910 | 0.87840 | 37963 ft | 442 kts | 309° |
| 2026-05-03 23:34 | 58.73060 | 0.79111 | 37955 ft | 442 kts | 309° |
| 2026-05-03 23:35 | 58.77200 | 0.70370 | 37957 ft | 442 kts | 309° |
| 2026-05-03 23:35 | 58.81309 | 0.61661 | 37947 ft | 442 kts | 309° |
| 2026-05-03 23:36 | 58.85433 | 0.52888 | 37952 ft | 442 kts | 309° |
| 2026-05-03 23:36 | 58.89557 | 0.44079 | 37952 ft | 441 kts | 309° |
| 2026-05-03 23:37 | 58.93668 | 0.35264 | 37952 ft | 441 kts | 309° |
| 2026-05-03 23:37 | 58.97752 | 0.26475 | 37952 ft | 441 kts | 309° |
| 2026-05-03 23:38 | 59.01851 | 0.17618 | 37952 ft | 441 kts | 309° |
| 2026-05-03 23:38 | 59.05948 | 0.08733 | 37948 ft | 441 kts | 309° |
| 2026-05-03 23:39 | 59.10026 | -0.00146 | 37951 ft | 440 kts | 309° |
| 2026-05-03 23:39 | 59.14060 | -0.08964 | 37948 ft | 439 kts | 309° |
| 2026-05-03 23:40 | 59.18114 | -0.17857 | 37943 ft | 438 kts | 309° |
| 2026-05-03 23:40 | 59.22157 | -0.26762 | 37943 ft | 438 kts | 309° |
| 2026-05-03 23:41 | 59.26166 | -0.35629 | 37933 ft | 438 kts | 308° |
| 2026-05-03 23:41 | 59.30195 | -0.44571 | 37933 ft | 438 kts | 308° |
| 2026-05-03 23:42 | 59.34220 | -0.53540 | 37941 ft | 438 kts | 308° |
| 2026-05-03 23:42 | 59.38232 | -0.62510 | 37927 ft | 437 kts | 308° |
| 2026-05-03 23:43 | 59.42227 | -0.71478 | 37924 ft | 437 kts | 308° |
| 2026-05-03 23:43 | 59.46192 | -0.80415 | 37940 ft | 437 kts | 308° |
| 2026-05-03 23:44 | 59.50178 | -0.89439 | 37926 ft | 437 kts | 308° |
| 2026-05-03 23:44 | 59.54158 | -0.98481 | 37925 ft | 437 kts | 308° |
| 2026-05-03 23:45 | 59.58129 | -1.07544 | 37927 ft | 437 kts | 308° |
| 2026-05-03 23:45 | 59.62067 | -1.16566 | 37922 ft | 437 kts | 308° |
| 2026-05-03 23:46 | 59.66023 | -1.25665 | 37922 ft | 436 kts | 307° |
| 2026-05-03 23:46 | 59.69965 | -1.34766 | 37920 ft | 435 kts | 308° |
| 2026-05-03 23:47 | 59.73902 | -1.43890 | 37917 ft | 435 kts | 307° |
| 2026-05-03 23:47 | 59.77799 | -1.52956 | 37913 ft | 435 kts | 307° |
| 2026-05-03 23:48 | 59.81718 | -1.62111 | 37914 ft | 435 kts | 307° |
| 2026-05-03 23:48 | 59.85625 | -1.71275 | 37911 ft | 435 kts | 307° |
| 2026-05-03 23:49 | 59.89532 | -1.80475 | 37913 ft | 435 kts | 307° |
| 2026-05-03 23:49 | 59.93403 | -1.89624 | 37914 ft | 434 kts | 307° |
| 2026-05-03 23:50 | 59.96657 | -1.97344 | 37911 ft | 434 kts | 307° |
| 2026-05-03 23:50 | 60.01160 | -2.08069 | 37912 ft | 434 kts | 307° |
| 2026-05-03 23:51 | 60.05035 | -2.17341 | 37908 ft | 434 kts | 307° |
| 2026-05-03 23:51 | 60.08880 | -2.26574 | 37486 ft | 427 kts | 307° |
| 2026-05-03 23:52 | 60.10749 | -2.31077 | 36688 ft | 426 kts | 307° |
| 2026-05-03 23:52 | 60.12631 | -2.35622 | 36026 ft | 422 kts | 307° |
| 2026-05-03 23:52 | 60.14499 | -2.40138 | 35379 ft | 417 kts | 307° |
| 2026-05-03 23:52 | 60.16343 | -2.44606 | 34776 ft | 413 kts | 307° |
| 2026-05-03 23:53 | 60.18117 | -2.48915 | 34144 ft | 410 kts | 306° |
| 2026-05-03 23:53 | 60.19925 | -2.53314 | 33363 ft | 407 kts | 307° |
| 2026-05-03 23:53 | 60.21728 | -2.57710 | 32440 ft | 407 kts | 307° |
| 2026-05-03 23:53 | 60.23529 | -2.62111 | 31471 ft | 408 kts | 307° |
| 2026-05-03 23:54 | 60.25311 | -2.66472 | 30554 ft | 409 kts | 307° |
| 2026-05-03 23:54 | 60.27118 | -2.70902 | 29618 ft | 408 kts | 308° |
| 2026-05-03 23:54 | 60.28907 | -2.75295 | 28744 ft | 404 kts | 307° |
| 2026-05-03 23:54 | 60.30677 | -2.79649 | 27869 ft | 400 kts | 307° |
| 2026-05-03 23:55 | 60.32424 | -2.83953 | 27218 ft | 392 kts | 307° |
| 2026-05-03 23:55 | 60.34142 | -2.88155 | 26658 ft | 383 kts | 308° |
| 2026-05-03 23:55 | 60.35882 | -2.92108 | 26326 ft | 370 kts | 309° |
| 2026-05-03 23:55 | 60.37574 | -2.95883 | 26041 ft | 355 kts | 309° |
| 2026-05-03 23:56 | 60.39199 | -2.99524 | 25772 ft | 342 kts | 309° |
| 2026-05-03 23:56 | 60.40754 | -3.03031 | 25514 ft | 329 kts | 309° |
| 2026-05-03 23:56 | 60.42229 | -3.06373 | 25235 ft | 317 kts | 308° |
| 2026-05-03 23:56 | 60.43676 | -3.09666 | 24964 ft | 308 kts | 308° |
| 2026-05-03 23:57 | 60.45083 | -3.12875 | 24484 ft | 303 kts | 307° |
| 2026-05-03 23:57 | 60.46476 | -3.16065 | 23934 ft | 302 kts | 307° |
| 2026-05-03 23:57 | 60.47862 | -3.19244 | 23396 ft | 299 kts | 307° |
| 2026-05-03 23:57 | 60.49234 | -3.22394 | 22888 ft | 298 kts | 307° |
| 2026-05-03 23:58 | 60.50601 | -3.25536 | 22458 ft | 296 kts | 307° |
| 2026-05-03 23:58 | 60.51957 | -3.28655 | 22012 ft | 294 kts | 307° |
| 2026-05-03 23:58 | 60.53306 | -3.31763 | 21602 ft | 292 kts | 307° |
| 2026-05-03 23:58 | 60.54629 | -3.34814 | 21185 ft | 291 kts | 307° |
| 2026-05-03 23:59 | 60.55962 | -3.37894 | 20778 ft | 289 kts | 307° |
| 2026-05-03 23:59 | 60.57285 | -3.40955 | 20457 ft | 284 kts | 307° |
| 2026-05-03 23:59 | 60.58583 | -3.43960 | 20047 ft | 283 kts | 307° |
| 2026-05-03 23:59 | 60.59883 | -3.46977 | 19605 ft | 283 kts | 307° |
| 2026-05-04 00:00 | 60.61180 | -3.49987 | 19219 ft | 281 kts | 307° |
| 2026-05-04 00:00 | 60.62442 | -3.52920 | 18895 ft | 278 kts | 307° |
| 2026-05-04 00:00 | 60.63716 | -3.55889 | 18442 ft | 279 kts | 306° |
| 2026-05-04 00:00 | 60.64994 | -3.58869 | 18020 ft | 278 kts | 306° |
| 2026-05-04 00:01 | 60.66261 | -3.61824 | 17595 ft | 277 kts | 306° |
| 2026-05-04 00:01 | 60.67524 | -3.64776 | 17160 ft | 275 kts | 306° |
| 2026-05-04 00:01 | 60.68780 | -3.67716 | 16749 ft | 274 kts | 306° |
| 2026-05-04 00:01 | 60.70028 | -3.70639 | 16373 ft | 273 kts | 306° |
| 2026-05-04 00:02 | 60.71263 | -3.73535 | 16070 ft | 268 kts | 306° |
| 2026-05-04 00:02 | 60.72487 | -3.76409 | 15646 ft | 268 kts | 306° |
| 2026-05-04 00:02 | 60.73692 | -3.79246 | 15224 ft | 268 kts | 306° |
| 2026-05-04 00:02 | 60.74907 | -3.82109 | 14827 ft | 267 kts | 306° |
| 2026-05-04 00:03 | 60.76121 | -3.84971 | 14434 ft | 266 kts | 306° |
| 2026-05-04 00:03 | 60.77328 | -3.87821 | 14040 ft | 265 kts | 305° |
| 2026-05-04 00:03 | 60.78533 | -3.90670 | 13653 ft | 264 kts | 305° |
| 2026-05-04 00:03 | 60.79731 | -3.93506 | 13211 ft | 263 kts | 306° |
| 2026-05-04 00:04 | 60.80907 | -3.96293 | 12798 ft | 262 kts | 306° |
| 2026-05-04 00:04 | 60.82096 | -3.99116 | 12373 ft | 261 kts | 306° |
| 2026-05-04 00:04 | 60.83283 | -4.01937 | 11950 ft | 261 kts | 306° |
| 2026-05-04 00:04 | 60.84466 | -4.04751 | 11547 ft | 260 kts | 306° |
| 2026-05-04 00:05 | 60.85645 | -4.07560 | 11141 ft | 260 kts | 306° |
| 2026-05-04 00:05 | 60.86822 | -4.10366 | 10737 ft | 259 kts | 306° |
| 2026-05-04 00:05 | 60.87994 | -4.13165 | 10362 ft | 257 kts | 307° |
| 2026-05-04 00:05 | 60.89158 | -4.15947 | 10036 ft | 255 kts | 307° |
| 2026-05-04 00:06 | 60.90287 | -4.18647 | 9924 ft | 251 kts | 307° |
| 2026-05-04 00:06 | 60.91424 | -4.21371 | 9924 ft | 251 kts | 307° |
| 2026-05-04 00:06 | 60.92562 | -4.24103 | 9924 ft | 252 kts | 307° |
| 2026-05-04 00:06 | 60.93700 | -4.26839 | 9922 ft | 252 kts | 307° |
| 2026-05-04 00:07 | 60.94841 | -4.29582 | 9923 ft | 252 kts | 307° |
| 2026-05-04 00:07 | 60.95981 | -4.32326 | 9922 ft | 252 kts | 307° |
| 2026-05-04 00:07 | 60.97119 | -4.35071 | 9922 ft | 252 kts | 307° |
| 2026-05-04 00:07 | 60.98260 | -4.37823 | 9927 ft | 253 kts | 306° |
| 2026-05-04 00:08 | 60.99386 | -4.40545 | 9923 ft | 254 kts | 306° |
| 2026-05-04 00:08 | 61.00533 | -4.43319 | 9920 ft | 254 kts | 306° |
| 2026-05-04 00:08 | 61.01677 | -4.46091 | 9922 ft | 254 kts | 306° |
| 2026-05-04 00:08 | 61.02822 | -4.48867 | 9923 ft | 254 kts | 306° |
| 2026-05-04 00:09 | 61.03966 | -4.51644 | 9921 ft | 254 kts | 306° |
| 2026-05-04 00:09 | 61.05107 | -4.54419 | 9925 ft | 254 kts | 306° |
| 2026-05-04 00:09 | 61.06251 | -4.57203 | 9924 ft | 254 kts | 306° |
| 2026-05-04 00:09 | 61.07393 | -4.59987 | 9926 ft | 254 kts | 306° |
| 2026-05-04 00:10 | 61.08517 | -4.62728 | 9926 ft | 254 kts | 306° |
| 2026-05-04 00:10 | 61.09657 | -4.65515 | 9925 ft | 254 kts | 306° |
| 2026-05-04 00:10 | 61.10799 | -4.68307 | 9923 ft | 254 kts | 306° |
| 2026-05-04 00:10 | 61.11939 | -4.71100 | 9929 ft | 254 kts | 306° |
| 2026-05-04 00:11 | 61.13077 | -4.73890 | 9926 ft | 254 kts | 306° |
| 2026-05-04 00:11 | 61.14215 | -4.76683 | 9923 ft | 254 kts | 306° |
| 2026-05-04 00:11 | 61.15352 | -4.79478 | 9923 ft | 254 kts | 306° |
| 2026-05-04 00:11 | 61.16487 | -4.82272 | 9924 ft | 254 kts | 306° |
| 2026-05-04 00:12 | 61.17606 | -4.85030 | 9932 ft | 254 kts | 306° |
| 2026-05-04 00:12 | 61.18743 | -4.87835 | 9918 ft | 253 kts | 306° |
| 2026-05-04 00:12 | 61.19873 | -4.90625 | 9924 ft | 252 kts | 306° |
| 2026-05-04 00:12 | 61.20999 | -4.93409 | 9925 ft | 252 kts | 306° |
| 2026-05-04 00:13 | 61.22125 | -4.96198 | 9925 ft | 252 kts | 306° |
| 2026-05-04 00:13 | 61.23252 | -4.98992 | 9925 ft | 252 kts | 306° |
| 2026-05-04 00:13 | 61.24363 | -5.01749 | 9961 ft | 252 kts | 306° |
| 2026-05-04 00:13 | 61.25491 | -5.04552 | 9932 ft | 255 kts | 304° |
| 2026-05-04 00:14 | 61.26632 | -5.07396 | 9929 ft | 256 kts | 304° |
| 2026-05-04 00:14 | 61.27775 | -5.10243 | 9931 ft | 257 kts | 304° |
| 2026-05-04 00:14 | 61.28919 | -5.13096 | 9928 ft | 257 kts | 304° |
| 2026-05-04 00:14 | 61.30061 | -5.15948 | 9922 ft | 257 kts | 304° |
| 2026-05-04 00:15 | 61.31204 | -5.18805 | 9929 ft | 257 kts | 304° |
| 2026-05-04 00:15 | 61.32347 | -5.21666 | 9930 ft | 257 kts | 304° |
| 2026-05-04 00:15 | 61.33472 | -5.24486 | 9925 ft | 257 kts | 304° |
| 2026-05-04 00:15 | 61.34611 | -5.27345 | 9922 ft | 257 kts | 304° |
| 2026-05-04 00:16 | 61.35750 | -5.30209 | 9930 ft | 257 kts | 304° |
| 2026-05-04 00:16 | 61.36890 | -5.33076 | 9936 ft | 256 kts | 304° |
| 2026-05-04 00:16 | 61.38029 | -5.35942 | 9940 ft | 257 kts | 304° |
| 2026-05-04 00:16 | 61.39168 | -5.38815 | 9936 ft | 257 kts | 304° |
| 2026-05-04 00:17 | 61.40304 | -5.41685 | 9926 ft | 257 kts | 304° |
| 2026-05-04 00:17 | 61.41442 | -5.44561 | 9939 ft | 257 kts | 304° |
| 2026-05-04 00:17 | 61.42561 | -5.47395 | 9925 ft | 257 kts | 304° |
| 2026-05-04 00:17 | 61.43696 | -5.50274 | 9933 ft | 257 kts | 304° |
| 2026-05-04 00:18 | 61.44832 | -5.53156 | 9932 ft | 257 kts | 304° |
| 2026-05-04 00:18 | 61.45966 | -5.56039 | 9928 ft | 256 kts | 304° |
| 2026-05-04 00:18 | 61.47098 | -5.58920 | 9931 ft | 256 kts | 304° |
| 2026-05-04 00:18 | 61.48229 | -5.61803 | 9937 ft | 256 kts | 304° |
| 2026-05-04 00:19 | 61.49359 | -5.64690 | 9927 ft | 256 kts | 304° |
| 2026-05-04 00:19 | 61.50469 | -5.67526 | 9933 ft | 255 kts | 304° |
| 2026-05-04 00:19 | 61.51593 | -5.70402 | 9930 ft | 255 kts | 304° |
| 2026-05-04 00:19 | 61.52714 | -5.73275 | 9933 ft | 255 kts | 304° |
| 2026-05-04 00:20 | 61.53836 | -5.76154 | 9935 ft | 255 kts | 304° |
| 2026-05-04 00:20 | 61.54955 | -5.79027 | 9933 ft | 255 kts | 304° |
| 2026-05-04 00:20 | 61.56077 | -5.81911 | 9934 ft | 255 kts | 304° |
| 2026-05-04 00:20 | 61.57198 | -5.84799 | 9936 ft | 255 kts | 304° |
| 2026-05-04 00:21 | 61.58316 | -5.87680 | 9935 ft | 255 kts | 304° |
| 2026-05-04 00:21 | 61.59422 | -5.90534 | 9935 ft | 255 kts | 304° |
| 2026-05-04 00:21 | 61.60539 | -5.93421 | 9939 ft | 255 kts | 304° |
| 2026-05-04 00:21 | 61.61657 | -5.96311 | 9851 ft | 254 kts | 304° |
| 2026-05-04 00:22 | 61.62774 | -5.99206 | 9393 ft | 256 kts | 304° |
| 2026-05-04 00:22 | 61.63899 | -6.02129 | 8941 ft | 257 kts | 304° |
| 2026-05-04 00:22 | 61.65013 | -6.05017 | 8636 ft | 252 kts | 304° |
| 2026-05-04 00:22 | 61.66112 | -6.07871 | 8257 ft | 250 kts | 304° |
| 2026-05-04 00:23 | 61.67204 | -6.10717 | 7848 ft | 250 kts | 304° |
| 2026-05-04 00:23 | 61.68286 | -6.13541 | 7423 ft | 251 kts | 304° |
| 2026-05-04 00:23 | 61.69385 | -6.16412 | 7044 ft | 251 kts | 305° |
| 2026-05-04 00:23 | 61.70476 | -6.19261 | 6938 ft | 249 kts | 305° |
| 2026-05-04 00:24 | 61.71567 | -6.22117 | 6937 ft | 251 kts | 305° |
| 2026-05-04 00:24 | 61.72663 | -6.24989 | 6936 ft | 251 kts | 305° |
| 2026-05-04 00:24 | 61.73755 | -6.27853 | 6936 ft | 251 kts | 305° |
| 2026-05-04 00:24 | 61.74851 | -6.30732 | 6935 ft | 251 kts | 305° |
| 2026-05-04 00:25 | 61.75944 | -6.33605 | 6931 ft | 251 kts | 305° |
| 2026-05-04 00:25 | 61.77037 | -6.36484 | 6944 ft | 251 kts | 305° |
| 2026-05-04 00:25 | 61.78112 | -6.39323 | 6945 ft | 250 kts | 307° |
| 2026-05-04 00:25 | 61.79189 | -6.42167 | 6934 ft | 247 kts | 307° |
| 2026-05-04 00:26 | 61.80270 | -6.45020 | 6936 ft | 251 kts | 307° |
| 2026-05-04 00:26 | 61.81369 | -6.47929 | 6937 ft | 254 kts | 306° |
| 2026-05-04 00:26 | 61.82473 | -6.50854 | 6936 ft | 254 kts | 306° |
| 2026-05-04 00:26 | 61.83573 | -6.53772 | 6936 ft | 254 kts | 306° |
| 2026-05-04 00:27 | 61.84676 | -6.56701 | 6938 ft | 254 kts | 306° |
| 2026-05-04 00:27 | 61.85776 | -6.59627 | 6934 ft | 254 kts | 306° |
| 2026-05-04 00:27 | 61.86859 | -6.62511 | 6933 ft | 254 kts | 306° |
| 2026-05-04 00:27 | 61.87956 | -6.65439 | 6933 ft | 254 kts | 306° |
| 2026-05-04 00:28 | 61.89056 | -6.68377 | 6934 ft | 254 kts | 306° |
| 2026-05-04 00:28 | 61.90154 | -6.71312 | 6937 ft | 254 kts | 306° |
| 2026-05-04 00:28 | 61.91252 | -6.74252 | 6936 ft | 254 kts | 306° |
| 2026-05-04 00:28 | 61.92348 | -6.77189 | 6936 ft | 254 kts | 306° |
| 2026-05-04 00:29 | 61.93445 | -6.80135 | 6923 ft | 254 kts | 306° |
| 2026-05-04 00:29 | 61.94541 | -6.83079 | 6723 ft | 255 kts | 306° |
| 2026-05-04 00:29 | 61.95663 | -6.86042 | 6163 ft | 257 kts | 309° |
| 2026-05-04 00:29 | 61.96703 | -6.89080 | 5749 ft | 250 kts | 300° |
| 2026-05-04 00:30 | 61.97536 | -6.92313 | 5143 ft | 252 kts | 298° |
| 2026-05-04 00:30 | 61.98329 | -6.95557 | 4748 ft | 246 kts | 298° |
| 2026-05-04 00:30 | 61.99128 | -6.98784 | 4160 ft | 248 kts | 299° |
| 2026-05-04 00:30 | 61.99964 | -7.02043 | 3466 ft | 254 kts | 300° |
| 2026-05-04 00:31 | 62.00800 | -7.05342 | 2976 ft | 251 kts | 298° |
| 2026-05-04 00:31 | 62.01602 | -7.08600 | 2545 ft | 245 kts | 298° |
| 2026-05-04 00:31 | 62.02376 | -7.11707 | 2180 ft | 229 kts | 300° |
| 2026-05-04 00:31 | 62.03089 | -7.14570 | 1788 ft | 209 kts | 301° |
| 2026-05-04 00:32 | 62.03745 | -7.17206 | 1450 ft | 195 kts | 301° |
| 2026-05-04 00:32 | 62.04351 | -7.19640 | 1117 ft | 181 kts | 303° |
| 2026-05-04 00:32 | 62.04919 | -7.21920 | 814 ft | 167 kts | 301° |
| 2026-05-04 00:32 | 62.05442 | -7.24048 | 449 ft | 158 kts | 302° |
| 2026-05-04 00:33 | 62.05920 | -7.25992 | 306 ft | 140 kts | 303° |
| 2026-05-04 00:33 | 62.06515 | -7.28386 | 300 ft | 13 kts | 299° |
| 2026-05-04 00:33 | 62.06534 | -7.28489 | 299 ft | 14 kts | 284° |
| 2026-05-04 00:34 | 62.06545 | -7.28507 | 298 ft | 1 kts | 9° |
| 2026-05-04 00:34 | 62.06546 | -7.28461 | 299 ft | 8 kts | 98° |
| 2026-05-04 00:34 | 62.06522 | -7.28345 | 300 ft | 7 kts | 127° |
| 2026-05-04 00:34 | 62.06494 | -7.28172 | 296 ft | 12 kts | 64° |
| 2026-05-04 00:35 | 62.06568 | -7.28092 | 295 ft | 13 kts | 10° |
| 2026-05-04 00:35 | 62.06631 | -7.28002 | 300 ft | 11 kts | 52° |
| 2026-05-04 00:35 | 62.06689 | -7.27918 | 296 ft | 5 kts | 26° |
| 2026-05-04 00:35 | 62.06689 | -7.27917 | 300 ft | 0 kts | 26° |